Time;durP1;ratioP1;P1;durP2;ratioP2;P2;SDS_P1;SDS_P2;PMS_P1;PMS_P2;Temp;Humidity;BMP_temperature;BMP_pressure;BME280_temperature;BME280_humidity;BME280_pressure;Samples;Min_cycle;Max_cycle;Signal;HPM_P1;HPM_P2
2024/01/02 00:01:39;;;;;;;3.58;1.73;;;;;;;-19.58;79.06;101938.59;10427712;28;20042;-67
2024/01/02 00:06:41;;;;;;;2.42;1.63;;;;;;;-19.50;79.14;101931.28;10424425;28;20129;-66
2024/01/02 00:11:44;;;;;;;5.35;2.13;;;;;;;-19.50;78.68;101941.75;10413459;28;20038;-66
2024/01/02 00:16:46;;;;;;;2.63;1.70;;;;;;;-19.63;78.56;101943.97;10435958;28;20041;-68
2024/01/02 00:21:48;;;;;;;2.63;1.50;;;;;;;-19.67;78.38;101934.56;10439085;28;20037;-66
2024/01/02 00:26:51;;;;;;;2.40;2.20;;;;;;;-19.78;78.70;101943.69;10416451;28;20034;-67
2024/01/02 00:31:53;;;;;;;3.65;1.70;;;;;;;-19.85;78.59;101938.69;10434026;28;20045;-66
2024/01/02 00:36:55;;;;;;;4.72;1.90;;;;;;;-19.76;79.00;101923.63;10442668;28;20045;-66
2024/01/02 00:41:58;;;;;;;5.90;2.05;;;;;;;-19.66;78.51;101922.34;10435380;28;20517;-66
2024/01/02 00:47:00;;;;;;;4.25;2.40;;;;;;;-19.69;78.80;101918.09;10443692;28;20437;-66
2024/01/02 00:52:02;;;;;;;4.38;1.95;;;;;;;-19.67;79.13;101918.88;10442678;28;20505;-66
2024/01/02 00:57:05;;;;;;;3.25;1.55;;;;;;;-19.71;78.88;101926.91;10430389;28;20494;-67
2024/01/02 01:02:07;;;;;;;4.78;1.73;;;;;;;-19.66;78.72;101919.72;10441032;28;20417;-67
2024/01/02 01:07:10;;;;;;;3.40;1.40;;;;;;;-19.61;78.61;101908.22;10429935;28;20048;-67
2024/01/02 01:12:12;;;;;;;2.80;1.67;;;;;;;-19.54;78.30;101921.91;10441541;28;20395;-67
2024/01/02 01:17:15;;;;;;;1.88;1.20;;;;;;;-19.41;78.04;101920.50;10441299;28;20049;-66
2024/01/02 01:22:17;;;;;;;2.45;1.65;;;;;;;-19.41;78.11;101917.88;10442941;28;20052;-67
2024/01/02 01:27:19;;;;;;;3.03;1.60;;;;;;;-19.38;77.89;101920.38;10440015;28;20056;-67
2024/01/02 01:32:22;;;;;;;2.15;1.30;;;;;;;-19.46;77.84;101916.34;10435500;28;20417;-67
2024/01/02 01:37:25;;;;;;;2.95;1.60;;;;;;;-19.55;78.01;101912.34;10430076;28;20429;-68
2024/01/02 01:42:28;;;;;;;3.38;2.10;;;;;;;-19.48;77.73;101908.56;10439956;28;20049;-68
2024/01/02 01:47:30;;;;;;;3.05;2.47;;;;;;;-19.57;77.67;101901.09;10424585;28;20136;-67
2024/01/02 01:52:34;;;;;;;3.20;1.80;;;;;;;-19.66;77.89;101907.53;10415188;28;20041;-68
2024/01/02 01:57:39;;;;;;;3.65;1.90;;;;;;;-19.55;77.65;101900.13;10411579;28;20037;-68
2024/01/02 02:02:43;;;;;;;3.35;1.92;;;;;;;-19.54;77.74;101901.84;10407633;28;20045;-68
2024/01/02 02:07:45;;;;;;;3.88;2.17;;;;;;;-19.55;77.88;101899.28;10422040;28;20409;-67
2024/01/02 02:12:48;;;;;;;3.85;2.03;;;;;;;-19.42;77.83;101894.41;10435724;28;20037;-67
2024/01/02 02:17:50;;;;;;;4.80;2.45;;;;;;;-19.43;78.02;101900.53;10404183;28;20061;-67
2024/01/02 02:22:52;;;;;;;3.80;2.25;;;;;;;-19.48;78.06;101892.00;10440579;28;20041;-68
2024/01/02 02:27:55;;;;;;;4.03;2.33;;;;;;;-19.40;77.89;101884.75;10448075;28;20537;-67
2024/01/02 02:32:57;;;;;;;3.28;2.00;;;;;;;-19.42;77.29;101874.34;10448257;28;20505;-67
2024/01/02 02:37:59;;;;;;;4.07;2.10;;;;;;;-19.39;77.51;101876.84;10444337;28;20034;-68
2024/01/02 02:43:02;;;;;;;3.65;2.28;;;;;;;-19.41;78.16;101881.28;10434951;28;20471;-66
2024/01/02 02:48:04;;;;;;;4.38;2.40;;;;;;;-19.32;78.48;101873.06;10414602;28;20045;-66
2024/01/02 02:53:07;;;;;;;5.90;2.75;;;;;;;-19.20;78.36;101868.28;10447414;28;20041;-67
2024/01/02 02:58:10;;;;;;;7.00;2.85;;;;;;;-19.23;78.41;101859.66;10444991;28;20036;-67
2024/01/02 03:03:14;;;;;;;4.97;3.08;;;;;;;-19.15;77.94;101845.41;10429568;28;20042;-67
2024/01/02 03:08:16;;;;;;;5.32;2.70;;;;;;;-19.11;78.18;101849.59;10417067;28;20057;-68
2024/01/02 03:13:19;;;;;;;6.63;2.97;;;;;;;-19.16;78.25;101854.16;10438590;28;20041;-68
2024/01/02 03:18:22;;;;;;;4.25;2.85;;;;;;;-19.06;78.59;101848.50;10407393;28;20046;-68
2024/01/02 03:23:24;;;;;;;7.57;3.08;;;;;;;-19.07;78.68;101857.28;10425014;28;20041;-68
2024/01/02 03:28:27;;;;;;;5.35;2.95;;;;;;;-19.20;78.25;101852.59;10411509;28;20026;-68
2024/01/02 03:33:30;;;;;;;5.20;2.92;;;;;;;-19.22;78.18;101858.72;10425627;28;20041;-66
2024/01/02 03:38:33;;;;;;;5.15;2.83;;;;;;;-19.24;78.32;101857.94;10443024;28;20420;-67
2024/01/02 03:43:35;;;;;;;5.38;2.63;;;;;;;-19.22;78.17;101861.34;10441866;28;20068;-67
2024/01/02 03:48:39;;;;;;;4.05;2.20;;;;;;;-19.24;77.97;101852.72;10428583;28;20499;-67
2024/01/02 03:53:41;;;;;;;3.78;2.15;;;;;;;-19.22;78.00;101848.28;10445473;28;20747;-69
2024/01/02 03:58:44;;;;;;;3.38;2.28;;;;;;;-19.19;77.92;101835.97;10445755;28;20048;-68
2024/01/02 04:03:48;;;;;;;3.47;1.83;;;;;;;-19.13;77.64;101836.56;10444107;28;20041;-68
2024/01/02 04:08:50;;;;;;;2.25;1.85;;;;;;;-19.11;77.88;101839.13;10444182;28;20034;-68
2024/01/02 04:13:52;;;;;;;2.80;2.10;;;;;;;-19.10;78.25;101836.44;10435260;28;20060;-68
2024/01/02 04:18:54;;;;;;;2.83;1.65;;;;;;;-19.27;77.83;101839.75;10406349;28;20030;-68
2024/01/02 04:23:59;;;;;;;2.60;1.60;;;;;;;-19.37;77.84;101843.66;10436186;28;20048;-68
2024/01/02 04:29:01;;;;;;;3.92;1.80;;;;;;;-19.33;78.16;101837.38;10441235;28;20045;-67
2024/01/02 04:34:03;;;;;;;3.92;2.08;;;;;;;-19.36;78.10;101832.28;10416432;28;20052;-67
2024/01/02 04:39:06;;;;;;;2.70;1.77;;;;;;;-19.48;77.88;101829.28;10436338;28;20037;-67
2024/01/02 04:44:08;;;;;;;4.15;1.63;;;;;;;-19.48;78.08;101830.13;10442609;28;20052;-67
2024/01/02 04:49:10;;;;;;;3.15;1.63;;;;;;;-19.48;78.04;101824.06;10439220;28;20521;-68
2024/01/02 04:54:14;;;;;;;3.47;1.70;;;;;;;-19.35;77.80;101826.13;10417401;28;20042;-68
2024/01/02 04:59:17;;;;;;;3.92;2.03;;;;;;;-19.26;77.87;101825.78;10443130;28;20041;-68
2024/01/02 05:04:19;;;;;;;7.60;3.85;;;;;;;-19.29;77.31;101820.66;10428538;28;20064;-67
2024/01/02 05:09:22;;;;;;;7.45;3.70;;;;;;;-19.27;77.52;101812.75;10438377;28;20033;-68
2024/01/02 05:14:25;;;;;;;11.75;3.95;;;;;;;-19.06;77.45;101811.88;10422602;28;20044;-67
2024/01/02 05:19:28;;;;;;;7.53;3.75;;;;;;;-19.04;77.10;101819.66;10442919;28;20044;-67
2024/01/02 05:24:31;;;;;;;11.43;3.78;;;;;;;-18.90;77.66;101817.34;10430042;28;20057;-67
2024/01/02 05:29:36;;;;;;;9.30;3.80;;;;;;;-18.82;77.62;101820.47;10423192;28;20034;-68
2024/01/02 05:34:38;;;;;;;8.05;3.50;;;;;;;-18.69;77.37;101819.03;10415194;28;20452;-67
2024/01/02 05:39:40;;;;;;;4.68;3.03;;;;;;;-18.70;77.54;101819.09;10439735;28;20045;-67
2024/01/02 05:44:42;;;;;;;8.35;4.50;;;;;;;-18.75;77.11;101821.91;10438190;28;20155;-68
2024/01/02 05:49:45;;;;;;;11.80;5.60;;;;;;;-19.13;77.09;101833.09;10407756;28;20045;-67
2024/01/02 05:54:47;;;;;;;9.85;5.15;;;;;;;-19.18;77.12;101841.16;10434283;28;20060;-68
2024/01/02 05:59:49;;;;;;;8.05;5.05;;;;;;;-19.52;76.59;101845.09;10437798;28;20034;-67
2024/01/02 06:04:52;;;;;;;9.23;5.03;;;;;;;-19.36;77.47;101840.13;10443762;28;20044;-70
2024/01/02 06:09:57;;;;;;;9.45;4.63;;;;;;;-19.27;77.69;101844.97;10449224;28;20646;-66
2024/01/02 06:14:59;;;;;;;8.07;4.43;;;;;;;-19.23;78.26;101845.72;10446481;28;20040;-67
2024/01/02 06:20:04;;;;;;;8.07;4.28;;;;;;;-19.15;78.25;101833.16;10435205;28;20045;-67
2024/01/02 06:25:10;;;;;;;9.48;4.40;;;;;;;-19.00;78.33;101842.16;10421682;28;20041;-67
2024/01/02 06:30:12;;;;;;;8.00;4.43;;;;;;;-19.03;78.75;101823.97;10417444;28;20034;-68
2024/01/02 06:35:14;;;;;;;10.98;5.07;;;;;;;-19.08;78.43;101849.47;10428189;28;20034;-68
2024/01/02 06:40:17;;;;;;;9.45;4.80;;;;;;;-19.08;79.54;101841.63;10446354;28;20034;-67
2024/01/02 06:45:20;;;;;;;12.07;5.30;;;;;;;-18.88;78.99;101836.44;10440231;28;20054;-68
2024/01/02 06:50:23;;;;;;;9.43;4.80;;;;;;;-18.61;79.01;101835.22;10410873;28;20418;-67
2024/01/02 06:55:25;;;;;;;10.90;5.03;;;;;;;-18.54;78.64;101848.06;10428952;28;20037;-66
2024/01/02 07:00:28;;;;;;;11.45;5.25;;;;;;;-18.33;78.91;101839.28;10432564;28;20042;-68
2024/01/02 07:05:31;;;;;;;11.48;5.43;;;;;;;-18.13;78.42;101830.53;10446014;28;20050;-68
2024/01/02 07:10:33;;;;;;;10.52;5.55;;;;;;;-17.97;78.14;101828.94;10434720;28;20037;-68
2024/01/02 07:15:37;;;;;;;11.63;5.75;;;;;;;-17.98;76.92;101826.38;10433739;28;20048;-66
2024/01/02 07:20:39;;;;;;;11.07;6.47;;;;;;;-17.87;76.83;101821.47;10418184;28;20025;-68
2024/01/02 07:25:41;;;;;;;12.48;5.55;;;;;;;-17.78;76.88;101831.56;10445540;28;20045;-68
2024/01/02 07:30:44;;;;;;;14.18;6.20;;;;;;;-17.60;76.60;101829.81;10434685;28;20047;-68
2024/01/02 07:35:46;;;;;;;11.90;6.18;;;;;;;-17.79;75.76;101824.59;10440887;28;20044;-68
2024/01/02 07:40:48;;;;;;;12.35;6.43;;;;;;;-17.77;76.59;101836.72;10444583;28;20044;-68
2024/01/02 07:45:51;;;;;;;13.75;5.97;;;;;;;-17.39;76.71;101820.91;10430871;28;20056;-68
2024/01/02 07:50:53;;;;;;;20.15;8.00;;;;;;;-17.46;76.14;101830.88;10442911;28;20099;-68
2024/01/02 07:55:56;;;;;;;15.73;7.78;;;;;;;-17.36;75.57;101812.91;10444754;28;20037;-68
2024/01/02 08:00:59;;;;;;;17.25;9.50;;;;;;;-17.21;75.63;101816.56;10426215;28;20041;-67
2024/01/02 08:06:02;;;;;;;20.55;8.13;;;;;;;-17.02;75.51;101819.13;10439030;28;20048;-67
2024/01/02 08:11:05;;;;;;;17.52;9.25;;;;;;;-17.05;74.18;101833.25;10438286;28;20041;-67
2024/01/02 08:16:07;;;;;;;15.30;7.45;;;;;;;-16.78;75.00;101831.06;10440371;28;20425;-67
2024/01/02 08:21:09;;;;;;;12.13;6.60;;;;;;;-15.66;73.11;101831.25;10442144;28;20060;-67
2024/01/02 08:26:13;;;;;;;13.13;7.40;;;;;;;-14.01;70.17;101796.09;10432993;28;20045;-67
2024/01/02 08:31:15;;;;;;;11.75;6.78;;;;;;;-14.34;65.98;101807.75;10444361;28;20041;-67
2024/01/02 08:36:18;;;;;;;9.18;5.13;;;;;;;-15.75;67.83;101803.69;10440715;28;20044;-68
2024/01/02 08:41:21;;;;;;;29.52;12.68;;;;;;;-16.60;69.70;101809.09;10441186;28;20033;-67
2024/01/02 08:46:23;;;;;;;15.95;7.70;;;;;;;-17.07;71.03;101807.09;10442115;28;20540;-68
2024/01/02 08:51:26;;;;;;;10.07;4.38;;;;;;;-17.19;72.05;101805.06;10432409;28;20045;-68
2024/01/02 08:56:29;;;;;;;6.93;3.63;;;;;;;-17.21;72.56;101801.66;10436934;28;20041;-68
2024/01/02 09:01:32;;;;;;;5.13;2.83;;;;;;;-17.29;72.78;101819.56;10433841;28;20038;-68
2024/01/02 09:06:35;;;;;;;7.55;2.90;;;;;;;-17.24;72.98;101809.69;10442203;28;20048;-69
2024/01/02 09:11:39;;;;;;;10.65;5.90;;;;;;;-17.32;73.61;101806.59;10436456;28;20033;-68
2024/01/02 09:16:43;;;;;;;8.23;5.50;;;;;;;-17.45;73.89;101798.47;10444694;28;20409;-67
2024/01/02 09:21:47;;;;;;;12.82;7.00;;;;;;;-17.52;73.80;101798.84;10433536;28;20034;-68
2024/01/02 09:26:51;;;;;;;12.10;6.82;;;;;;;-17.42;74.83;101792.22;10416322;28;20405;-67
2024/01/02 09:31:53;;;;;;;11.02;5.75;;;;;;;-17.30;74.60;101786.41;10425655;28;20042;-67
2024/01/02 09:36:56;;;;;;;11.40;6.78;;;;;;;-17.25;74.52;101781.75;10416502;28;20566;-67
2024/01/02 09:42:13;;;;;;;18.10;9.38;;;;;;;-17.44;74.57;101783.59;10420940;28;20445;-67
2024/01/02 09:47:21;;;;;;;16.52;8.18;;;;;;;-17.57;75.40;101788.56;10443355;28;20061;-67
2024/01/02 09:52:38;;;;;;;11.35;6.47;;;;;;;-17.70;75.50;101811.06;10447190;28;20030;-67
2024/01/02 09:57:48;;;;;;;11.05;6.32;;;;;;;-17.26;75.82;101797.59;10421000;28;20046;-67
2024/01/02 10:03:01;;;;;;;8.68;4.25;;;;;;;-17.07;75.91;101785.25;10446092;28;20472;-67
2024/01/02 10:08:07;;;;;;;10.35;4.03;;;;;;;-16.83;75.37;101786.66;10442894;28;20033;-68
2024/01/02 10:13:14;;;;;;;7.57;3.72;;;;;;;-16.79;74.42;101797.84;10440492;28;20449;-66
2024/01/02 10:18:49;;;;;;;7.55;3.28;;;;;;;-16.66;74.77;101784.94;10444685;28;20444;-65
2024/01/02 10:24:00;;;;;;;12.30;4.00;;;;;;;-16.71;74.57;101782.56;10446831;28;20037;-64
2024/01/02 10:29:05;;;;;;;8.25;4.22;;;;;;;-16.82;75.29;101771.75;10442362;28;20033;-65
2024/01/02 10:34:33;;;;;;;8.90;4.40;;;;;;;-16.72;74.85;101777.38;10448543;28;20440;-66
2024/01/02 10:40:01;;;;;;;6.60;4.32;;;;;;;-16.97;74.56;101773.38;10445533;28;20041;-65
2024/01/02 10:45:04;;;;;;;;;;;;;;;-17.01;75.46;101770.97;10421466;28;20061;-66
2024/01/02 10:50:12;;;;;;;11.23;5.10;;;;;;;-16.92;76.21;101765.28;10430899;28;19924;-63
2024/01/02 10:55:29;;;;;;;11.00;5.15;;;;;;;-16.86;75.70;101757.06;10428004;28;20037;-66
2024/01/02 11:00:34;;;;;;;10.88;4.43;;;;;;;-16.91;76.12;101751.22;10431951;28;20046;-66
2024/01/02 11:05:59;;;;;;;7.38;5.35;;;;;;;-16.91;75.66;101757.31;10417232;28;20045;-67
2024/01/02 11:11:03;;;;;;;10.13;4.88;;;;;;;-17.07;76.03;101783.47;10437381;28;20042;-65
2024/01/02 11:16:19;;;;;;;9.48;4.00;;;;;;;-17.06;75.80;101786.94;10438697;28;20037;-65
2024/01/02 11:21:30;;;;;;;10.45;4.85;;;;;;;-16.91;75.07;101775.69;10434069;28;20489;-67
2024/01/02 11:26:40;;;;;;;9.05;4.80;;;;;;;-16.69;74.94;101777.22;10435477;28;20046;-68
2024/01/02 11:31:45;;;;;;;8.63;3.05;;;;;;;-16.59;74.13;101781.03;10443921;28;20052;-65
2024/01/02 11:37:11;;;;;;;8.70;4.28;;;;;;;-16.64;74.48;101783.06;10443066;28;20045;-64
2024/01/02 11:42:47;;;;;;;10.75;3.72;;;;;;;-16.47;73.81;101776.00;10417079;28;20063;-67
2024/01/02 11:48:19;;;;;;;7.55;3.88;;;;;;;-16.48;73.68;101776.09;10433165;28;20053;-65
2024/01/02 11:53:22;;;;;;;9.02;3.50;;;;;;;-16.35;73.83;101777.13;10444838;28;20654;-69
2024/01/02 11:58:39;;;;;;;15.45;5.13;;;;;;;-16.32;74.25;101768.22;10437000;28;20042;-68
2024/01/02 12:03:55;;;;;;;9.80;4.65;;;;;;;-16.12;74.94;101772.44;10435412;28;20140;-70
2024/01/02 12:09:04;;;;;;;11.30;4.55;;;;;;;-16.03;75.04;101775.41;10422531;28;20034;-66
2024/01/02 12:14:15;;;;;;;8.45;4.65;;;;;;;-16.25;75.13;101785.38;10412498;28;20091;-64
2024/01/02 12:19:22;;;;;;;8.75;4.68;;;;;;;-16.16;75.28;101788.34;10427128;28;20041;-65
2024/01/02 12:24:25;;;;;;;10.43;5.13;;;;;;;-16.29;75.55;101783.84;10425179;28;20049;-66
2024/01/02 12:29:52;;;;;;;10.65;5.07;;;;;;;-16.39;75.44;101786.09;10413540;28;20033;-67
2024/01/02 12:35:09;;;;;;;6.55;3.58;;;;;;;-16.22;76.00;101762.41;10424235;28;20071;-66
2024/01/02 12:40:13;;;;;;;6.93;3.70;;;;;;;-16.41;75.80;101766.94;10420682;28;20129;-66
2024/01/02 12:45:20;;;;;;;7.72;2.95;;;;;;;-16.43;76.25;101773.22;10421406;28;20053;-66
2024/01/02 12:50:22;;;;;;;6.75;2.60;;;;;;;-16.38;76.55;101764.16;10425438;28;20048;-67
2024/01/02 12:55:26;;;;;;;6.43;3.40;;;;;;;-16.42;77.07;101772.28;10418345;28;20052;-68
2024/01/02 13:00:31;;;;;;;8.40;3.45;;;;;;;-16.35;76.45;101768.41;10412697;28;20048;-67
2024/01/02 13:05:35;;;;;;;8.57;3.40;;;;;;;-16.40;77.20;101778.31;10436138;28;20504;-68
2024/01/02 13:10:37;;;;;;;7.38;3.30;;;;;;;-16.38;77.62;101782.56;10437745;28;20188;-67
2024/01/02 13:15:42;;;;;;;4.65;2.92;;;;;;;-16.38;77.64;101776.44;10424636;28;20536;-68
2024/01/02 13:20:45;;;;;;;3.53;2.00;;;;;;;-16.49;77.66;101774.38;10422942;28;20453;-69
2024/01/02 13:25:54;;;;;;;5.55;2.30;;;;;;;-16.47;77.94;101777.78;10414982;28;20034;-69
2024/01/02 13:30:59;;;;;;;3.42;2.70;;;;;;;-16.58;77.89;101780.97;10414790;28;20415;-67
2024/01/02 13:36:05;;;;;;;9.32;2.35;;;;;;;-16.66;78.39;101792.81;10436180;28;20041;-66
2024/01/02 13:41:10;;;;;;;5.45;2.92;;;;;;;-16.57;78.85;101790.53;10423195;28;20053;-69
2024/01/02 13:46:20;;;;;;;5.95;2.25;;;;;;;-16.46;79.02;101792.63;10433775;28;20041;-68
2024/01/02 13:51:26;;;;;;;6.50;2.58;;;;;;;-16.46;79.38;101784.75;10413727;28;20134;-68
2024/01/02 13:56:31;;;;;;;2.13;1.73;;;;;;;-16.40;78.81;101789.66;10430724;28;20033;-67
2024/01/02 14:01:42;;;;;;;3.28;2.10;;;;;;;-16.30;78.72;101785.63;10401041;28;20042;-67
2024/01/02 14:06:45;;;;;;;2.35;1.98;;;;;;;-16.34;78.75;101789.34;10416932;28;20548;-68
2024/01/02 14:11:58;;;;;;;6.57;2.30;;;;;;;-16.33;79.14;101788.41;10425338;28;20568;-67
2024/01/02 14:17:04;;;;;;;4.00;2.42;;;;;;;-16.19;79.10;101804.28;10451805;28;20417;-66
2024/01/02 14:22:33;;;;;;;6.13;2.60;;;;;;;-16.19;78.44;101801.66;10427406;28;20041;-67
2024/01/02 14:28:15;;;;;;;6.15;2.72;;;;;;;-16.14;79.28;101796.16;10424847;28;20041;-68
2024/01/02 14:33:30;;;;;;;5.93;3.30;;;;;;;-16.12;78.72;101798.72;10430849;28;20052;-68
2024/01/02 14:38:58;;;;;;;8.07;5.00;;;;;;;-16.16;79.09;101803.28;10430445;28;20573;-71
2024/01/02 14:44:42;;;;;;;14.82;5.40;;;;;;;-16.22;78.63;101804.47;10423759;28;20045;-68
2024/01/02 14:49:49;;;;;;;23.98;11.13;;;;;;;-16.30;78.64;101785.63;10428991;28;20049;-67
2024/01/02 14:55:01;;;;;;;21.65;10.85;;;;;;;-16.35;78.97;101787.63;10438580;28;20765;-70
2024/01/02 15:00:09;;;;;;;28.92;15.50;;;;;;;-16.43;79.00;101794.25;10432929;28;20042;-70
2024/01/02 15:05:33;;;;;;;27.87;14.97;;;;;;;-16.41;78.68;101797.63;10431740;28;20037;-73
2024/01/02 15:10:55;;;;;;;30.60;15.27;;;;;;;-16.40;78.92;101794.91;10423620;28;20050;-74
2024/01/02 15:16:25;;;;;;;30.15;16.17;;;;;;;-16.32;79.55;101791.88;10442948;28;20071;-72
2024/01/02 15:21:43;;;;;;;32.25;17.13;;;;;;;-16.34;79.51;101794.59;10432449;28;20041;-70
2024/01/02 15:27:10;;;;;;;36.95;18.23;;;;;;;-16.47;79.41;101783.03;10426267;28;20402;-67
2024/01/02 15:32:16;;;;;;;38.67;19.02;;;;;;;-16.54;79.93;101786.91;10440146;28;20067;-68
2024/01/02 15:37:24;;;;;;;44.05;19.83;;;;;;;-16.70;80.25;101786.03;10432665;28;20497;-68
2024/01/02 15:42:37;;;;;;;34.80;18.77;;;;;;;-16.68;80.21;101790.25;10415477;28;20053;-68
2024/01/02 15:48:04;;;;;;;35.15;18.23;;;;;;;-16.75;80.03;101785.41;10423999;28;20804;-66
2024/01/02 15:53:25;;;;;;;40.72;21.50;;;;;;;-16.80;80.54;101786.50;10444886;28;20080;-66
2024/01/02 15:58:29;;;;;;;36.38;18.85;;;;;;;-16.83;81.13;101793.66;10429447;28;20048;-68
2024/01/02 16:04:08;;;;;;;35.33;19.15;;;;;;;-16.82;80.84;101790.13;10429930;28;20046;-69
2024/01/02 16:09:48;;;;;;;25.77;14.27;;;;;;;-16.89;81.25;101792.22;10427354;28;20041;-68
2024/01/02 16:15:29;;;;;;;29.45;14.23;;;;;;;-17.07;81.13;101782.63;10439648;28;20041;-69
2024/01/02 16:20:44;;;;;;;26.35;11.65;;;;;;;-17.14;81.43;101783.88;10437471;28;20647;-71
2024/01/02 16:26:04;;;;;;;19.90;9.50;;;;;;;-17.12;81.43;101779.41;10422988;28;20093;-69
2024/01/02 16:31:21;;;;;;;19.80;10.52;;;;;;;-17.15;81.64;101780.41;10433316;28;20045;-69
2024/01/02 16:36:52;;;;;;;19.40;9.70;;;;;;;-17.22;81.42;101775.50;10425897;28;20049;-69
2024/01/02 16:41:57;;;;;;;21.58;12.23;;;;;;;-17.28;81.85;101783.69;10441570;28;20048;-69
2024/01/02 16:47:01;;;;;;;21.75;11.15;;;;;;;-17.44;81.65;101780.97;10428181;28;20084;-69
2024/01/02 16:52:04;;;;;;;25.15;11.45;;;;;;;-17.46;81.84;101791.53;10446047;28;20056;-70
2024/01/02 16:57:07;;;;;;;21.27;11.02;;;;;;;-17.47;82.06;101784.59;10433489;28;20046;-69
2024/01/02 17:02:16;;;;;;;21.60;11.48;;;;;;;-17.48;81.65;101792.53;10411765;28;20033;-68
2024/01/02 17:07:21;;;;;;;27.88;12.55;;;;;;;-17.54;82.49;101788.41;10416519;28;20037;-70
2024/01/02 17:12:31;;;;;;;14.80;8.73;;;;;;;-17.50;82.05;101786.50;10422045;28;20040;-67
2024/01/02 17:17:34;;;;;;;20.83;10.73;;;;;;;-17.56;81.54;101803.38;10427523;28;20037;-69
2024/01/02 17:22:36;;;;;;;19.77;10.65;;;;;;;-17.56;81.70;101805.16;10414993;28;20042;-70
2024/01/02 17:27:39;;;;;;;20.10;11.60;;;;;;;-17.59;81.80;101803.53;10431459;28;20501;-69
2024/01/02 17:32:42;;;;;;;20.23;10.40;;;;;;;-17.61;81.83;101802.75;10421039;28;20041;-70
2024/01/02 17:37:46;;;;;;;24.73;12.40;;;;;;;-17.64;81.35;101800.28;10439453;28;20620;-69
2024/01/02 17:42:48;;;;;;;23.33;11.52;;;;;;;-17.69;82.45;101794.44;10406654;28;20046;-69
2024/01/02 17:48:13;;;;;;;22.67;11.00;;;;;;;-17.68;81.45;101796.13;10425708;28;20525;-70
2024/01/02 17:53:16;;;;;;;17.05;9.63;;;;;;;-17.76;82.23;101793.84;10439464;28;20037;-71
2024/01/02 17:58:24;;;;;;;20.08;10.55;;;;;;;-17.74;82.75;101788.53;10444957;28;20045;-67
2024/01/02 18:03:52;;;;;;;21.60;8.93;;;;;;;-17.83;82.59;101791.59;10440966;28;20417;-67
2024/01/02 18:09:15;;;;;;;15.15;9.50;;;;;;;-17.84;82.19;101785.53;10446348;28;20071;-67
2024/01/02 18:14:28;;;;;;;15.25;9.27;;;;;;;-17.87;82.52;101785.66;10442755;28;20064;-67
2024/01/02 18:19:43;;;;;;;17.17;8.15;;;;;;;-17.89;81.94;101789.25;10426489;28;20046;-69
2024/01/02 18:25:25;;;;;;;17.70;8.93;;;;;;;-17.96;82.56;101780.84;10446670;28;20046;-67
2024/01/02 18:30:51;;;;;;;17.65;9.77;;;;;;;-17.99;82.55;101778.38;10427474;28;20052;-68
2024/01/02 18:36:19;;;;;;;20.35;11.13;;;;;;;-18.14;82.56;101768.59;10417101;28;20049;-68
2024/01/02 18:41:33;;;;;;;17.20;9.98;;;;;;;-18.25;83.09;101773.44;10444039;28;20052;-68
2024/01/02 18:46:39;;;;;;;20.48;10.32;;;;;;;-18.31;83.17;101770.19;10434406;28;20546;-68
2024/01/02 18:52:15;;;;;;;22.05;10.18;;;;;;;-18.36;83.08;101760.84;10442958;28;20030;-67
2024/01/02 18:57:18;;;;;;;22.77;11.15;;;;;;;-18.37;83.10;101761.78;10446238;28;20568;-68
2024/01/02 19:02:21;;;;;;;23.10;11.63;;;;;;;-18.43;83.08;101756.78;10438101;28;20048;-68
2024/01/02 19:07:24;;;;;;;20.67;11.35;;;;;;;-18.46;82.83;101749.94;10445364;28;20060;-68
2024/01/02 19:12:26;;;;;;;21.77;10.85;;;;;;;-18.45;82.60;101742.94;10434001;28;20044;-68
2024/01/02 19:17:29;;;;;;;20.17;10.77;;;;;;;-18.49;83.66;101731.75;10443000;28;20390;-68
2024/01/02 19:22:32;;;;;;;23.42;10.38;;;;;;;-18.45;83.95;101740.31;10443332;28;20429;-68
2024/01/02 19:27:35;;;;;;;21.40;11.00;;;;;;;-18.47;83.52;101740.38;10441446;28;20141;-68
2024/01/02 19:32:38;;;;;;;18.73;10.25;;;;;;;-18.48;83.73;101732.59;10425253;28;20477;-68
2024/01/02 19:37:41;;;;;;;19.40;9.57;;;;;;;-18.47;83.83;101740.38;10441635;28;20042;-69
2024/01/02 19:42:43;;;;;;;12.52;8.48;;;;;;;-18.57;83.92;101748.69;10441045;28;20394;-68
2024/01/02 19:47:47;;;;;;;16.80;8.63;;;;;;;-18.62;83.80;101755.00;10414627;28;20057;-69
2024/01/02 19:52:50;;;;;;;14.00;8.40;;;;;;;-18.73;83.84;101749.44;10439840;28;20040;-68
2024/01/02 19:57:53;;;;;;;13.77;7.55;;;;;;;-18.85;84.95;101755.19;10438760;28;20128;-68
2024/01/02 20:02:55;;;;;;;13.15;7.15;;;;;;;-18.90;85.02;101765.00;10426129;28;20417;-68
2024/01/02 20:08:23;;;;;;;10.63;6.13;;;;;;;-19.06;85.84;101767.44;10428757;28;20038;-68
2024/01/02 20:13:25;;;;;;;11.35;5.38;;;;;;;-19.02;86.41;101747.22;10441496;28;20029;-68
2024/01/02 20:18:53;;;;;;;14.63;6.57;;;;;;;-19.01;86.42;101752.38;10428783;28;20038;-68
2024/01/02 20:23:58;;;;;;;12.60;6.63;;;;;;;-19.03;86.79;101746.38;10426904;28;20051;-68
2024/01/02 20:29:04;;;;;;;12.90;7.55;;;;;;;-18.92;86.67;101766.81;10443958;28;20052;-68
2024/01/02 20:34:40;;;;;;;14.95;7.15;;;;;;;-18.96;86.90;101750.41;10444220;28;20061;-66
2024/01/02 20:39:49;;;;;;;17.17;8.40;;;;;;;-18.87;86.69;101756.19;10428269;28;20562;-66
2024/01/02 20:44:57;;;;;;;11.60;6.13;;;;;;;-19.01;86.26;101748.91;10439546;28;20049;-66
2024/01/02 20:49:59;;;;;;;11.65;6.00;;;;;;;-19.05;85.70;101750.81;10440782;28;20044;-68
2024/01/02 20:55:03;;;;;;;7.68;4.15;;;;;;;-19.10;85.31;101755.38;10442023;28;20053;-67
2024/01/02 21:00:07;;;;;;;8.48;4.50;;;;;;;-19.17;84.70;101753.09;10435521;28;20744;-68
2024/01/02 21:05:54;;;;;;;10.90;5.63;;;;;;;-19.28;85.10;101738.69;10438525;28;20076;-68
2024/01/02 21:11:04;;;;;;;19.45;8.65;;;;;;;-19.28;84.58;101743.91;10433293;28;20041;-67
2024/01/02 21:16:08;;;;;;;14.43;7.65;;;;;;;-19.35;84.50;101745.09;10437018;28;20163;-68
2024/01/02 21:21:31;;;;;;;11.68;6.40;;;;;;;-19.35;84.90;101747.72;10428889;28;20034;-69
2024/01/02 21:26:35;;;;;;;14.55;6.68;;;;;;;-19.45;84.60;101735.91;10436579;28;20048;-69
2024/01/02 21:31:37;;;;;;;15.25;7.35;;;;;;;-19.53;84.49;101753.69;10449247;28;20037;-69
2024/01/02 21:36:40;;;;;;;12.27;6.22;;;;;;;-19.61;84.52;101753.16;10428815;28;20041;-69
2024/01/02 21:41:44;;;;;;;14.60;7.25;;;;;;;-19.67;84.17;101750.81;10452419;28;20040;-70
2024/01/02 21:46:49;;;;;;;13.93;7.35;;;;;;;-19.69;84.04;101744.78;10439066;28;20787;-70
2024/01/02 21:51:52;;;;;;;13.77;7.07;;;;;;;-19.74;84.33;101738.91;10438688;28;20033;-68
2024/01/02 21:56:56;;;;;;;15.43;7.30;;;;;;;-19.89;83.98;101740.38;10446456;28;20041;-69
2024/01/02 22:01:59;;;;;;;11.20;6.05;;;;;;;-19.98;83.85;101741.56;10444559;28;20049;-68
2024/01/02 22:07:07;;;;;;;11.23;4.90;;;;;;;-20.17;83.16;101732.75;10442122;28;20037;-69
2024/01/02 22:12:24;;;;;;;6.95;5.05;;;;;;;-20.41;83.66;101754.59;10430507;28;20033;-68
2024/01/02 22:17:33;;;;;;;9.48;5.35;;;;;;;-20.39;83.60;101755.34;10429850;28;20050;-69
2024/01/02 22:22:36;;;;;;;8.07;4.90;;;;;;;-20.42;83.45;101763.31;10440650;28;20052;-70
2024/01/02 22:27:40;;;;;;;9.50;4.40;;;;;;;-20.47;83.65;101737.41;10444418;28;20048;-67
2024/01/02 22:32:43;;;;;;;5.55;3.70;;;;;;;-20.40;83.74;101736.22;10440462;28;20037;-68
2024/01/02 22:37:45;;;;;;;7.90;4.15;;;;;;;-20.25;84.01;101738.25;10421666;28;20424;-67
2024/01/02 22:42:48;;;;;;;8.23;4.28;;;;;;;-20.28;83.77;101737.53;10417719;28;20052;-68
2024/01/02 22:47:50;;;;;;;7.53;4.03;;;;;;;-20.35;83.56;101741.25;10439618;28;20051;-67
2024/01/02 22:52:52;;;;;;;5.57;3.53;;;;;;;-20.51;83.17;101736.63;10414834;28;20040;-68
2024/01/02 22:57:55;;;;;;;8.20;3.88;;;;;;;-20.49;82.81;101740.03;10444546;28;20064;-68
2024/01/02 23:02:58;;;;;;;5.45;3.40;;;;;;;-20.50;83.15;101720.06;10444463;28;20037;-68
2024/01/02 23:08:16;;;;;;;6.72;3.05;;;;;;;-20.46;82.95;101719.06;10445208;28;20045;-69